Terminal Aerodrome Forecast
Issued by NWS

Current Version | Previous Version | Text Only | Print | Product List | Glossary On
Versions: 1 2 3 4 5 6 7 8 9 10 11 12 13 14 15 16 17 18 19 20 21
858
FTUS46 KSTO 191135
TAFSAC
TAF
KSAC 191135Z 1912/2012 14008KT P6SM -SHRA SCT020 BKN040
      TEMPO 1912/1915 3SM SHRA BKN015
     FM200600 15020G30KT P6SM -RA OVC015=

USA.gov is the U.S. government's official web portal to all federal, state and local government web resources and services.